Time;durP1;ratioP1;P1;durP2;ratioP2;P2;SDS_P1;SDS_P2;PMS_P1;PMS_P2;Temp;Humidity;BMP_temperature;BMP_pressure;BME280_temperature;BME280_humidity;BME280_pressure;Samples;Min_cycle;Max_cycle;Signal;HPM_P1;HPM_P2
2021/06/09 00:00:49;;;;;;;5.67;5.37;;;;;;;13.54;97.44;95959.44;5079699;28;20320;-67
2021/06/09 00:03:18;;;;;;;6.70;6.30;;;;;;;13.54;97.49;95954.94;5064313;28;20318;-67
2021/06/09 00:05:46;;;;;;;5.43;5.20;;;;;;;13.54;98.00;95954.13;5067929;28;20782;-67
2021/06/09 00:08:14;;;;;;;6.93;6.63;;;;;;;13.52;98.19;95951.66;5075798;28;20754;-67
2021/06/09 00:10:42;;;;;;;7.93;7.53;;;;;;;13.52;98.21;95949.00;5064895;28;20243;-67
2021/06/09 00:13:11;;;;;;;6.40;6.03;;;;;;;13.51;98.29;95955.31;5064418;28;20309;-66
2021/06/09 00:15:38;;;;;;;6.97;6.40;;;;;;;13.49;98.17;95956.53;5065254;28;20279;-67
2021/06/09 00:18:06;;;;;;;7.07;6.57;;;;;;;13.52;98.49;95956.13;5083672;28;20252;-68
2021/06/09 00:20:34;;;;;;;5.83;5.53;;;;;;;13.53;98.60;95952.47;5083697;28;20229;-67
2021/06/09 00:23:02;;;;;;;6.73;6.23;;;;;;;13.52;98.73;95951.66;5078118;28;20312;-68
2021/06/09 00:25:31;;;;;;;6.40;6.10;;;;;;;13.53;98.71;95947.16;5069856;28;20255;-67
2021/06/09 00:27:59;;;;;;;7.00;6.60;;;;;;;13.54;98.78;95944.34;5084978;28;20646;-68
2021/06/09 00:30:31;;;;;;;7.87;7.40;;;;;;;13.54;98.98;95938.22;5088310;28;20277;-67
2021/06/09 00:33:00;;;;;;;9.10;8.27;;;;;;;13.56;98.93;95941.50;5084239;28;20217;-67
2021/06/09 00:35:28;;;;;;;7.20;6.80;;;;;;;13.58;99.16;95944.75;5077026;28;20234;-67
2021/06/09 00:37:55;;;;;;;8.17;7.67;;;;;;;13.54;99.17;95936.38;5080552;28;20236;-67
2021/06/09 00:40:23;;;;;;;6.47;6.07;;;;;;;13.54;99.21;95939.03;5084755;28;20249;-67
2021/06/09 00:43:08;;;;;;;6.70;6.40;;;;;;;13.51;99.40;95944.72;5074475;28;20215;-67
2021/06/09 00:45:39;;;;;;;8.53;8.03;;;;;;;13.50;99.25;95948.38;5086214;28;20312;-67
2021/06/09 00:48:07;;;;;;;6.83;6.43;;;;;;;13.49;99.22;95943.28;5069626;28;20702;-66
2021/06/09 00:50:35;;;;;;;5.80;5.40;;;;;;;13.48;99.34;95941.63;5078129;28;20440;-68
2021/06/09 00:55:49;;;;;;;6.00;5.70;;;;;;;13.46;99.30;95941.84;5074825;28;20263;-67
2021/06/09 00:58:18;;;;;;;8.00;7.40;;;;;;;13.45;99.27;95934.91;5084177;28;20309;-67
2021/06/09 01:00:46;;;;;;;6.57;6.27;;;;;;;13.45;99.34;95947.34;5061574;28;20224;-68
2021/06/09 01:03:14;;;;;;;6.50;6.20;;;;;;;13.43;99.13;95949.34;5058322;28;20234;-67
2021/06/09 01:05:42;;;;;;;7.23;6.83;;;;;;;13.44;98.97;95948.31;5061421;28;20280;-67
2021/06/09 01:08:09;;;;;;;7.83;7.27;;;;;;;13.45;98.97;95944.69;5047983;28;20594;-67
2021/06/09 01:10:37;;;;;;;6.80;6.30;;;;;;;13.43;98.75;95941.38;5048012;28;20217;-67
2021/06/09 01:13:05;;;;;;;8.03;7.53;;;;;;;13.47;98.52;95951.44;5047314;28;20236;-68
2021/06/09 01:15:32;;;;;;;7.57;7.07;;;;;;;13.46;98.26;95947.16;5059571;28;20316;-67
2021/06/09 01:18:01;;;;;;;7.33;6.93;;;;;;;13.42;98.28;95942.41;5071619;28;20210;-67
2021/06/09 01:20:29;;;;;;;7.37;6.87;;;;;;;13.38;98.37;95949.94;5065965;28;20574;-67
2021/06/09 01:22:58;;;;;;;6.43;6.10;;;;;;;13.36;98.58;95947.50;5061238;28;20582;-67
2021/06/09 01:25:26;;;;;;;7.17;6.77;;;;;;;13.32;98.65;95946.22;5060306;28;20260;-68
2021/06/09 01:27:53;;;;;;;7.77;7.23;;;;;;;13.31;98.88;95944.59;5066610;28;20314;-67
2021/06/09 01:30:22;;;;;;;6.33;6.03;;;;;;;13.26;98.77;95952.31;5077578;28;20217;-67
2021/06/09 01:32:51;;;;;;;7.40;6.90;;;;;;;13.24;98.80;95945.53;5075904;28;20277;-67
2021/06/09 01:35:19;;;;;;;7.83;7.33;;;;;;;13.19;98.61;95948.78;5085494;28;20233;-67
2021/06/09 01:37:47;;;;;;;6.20;5.77;;;;;;;13.07;98.00;95942.31;5083957;28;20450;-67
2021/06/09 01:40:18;;;;;;;6.17;5.77;;;;;;;12.97;97.51;95947.16;5066895;28;20230;-66
2021/06/09 01:42:46;;;;;;;5.90;5.60;;;;;;;12.85;97.05;95949.50;5066848;28;20677;-67
2021/06/09 01:45:17;;;;;;;7.27;6.83;;;;;;;12.73;97.09;95945.72;5069596;28;20696;-67
2021/06/09 01:47:44;;;;;;;5.67;5.33;;;;;;;12.67;97.33;95947.31;5084176;28;20300;-67
2021/06/09 01:50:16;;;;;;;7.10;6.67;;;;;;;12.59;97.69;95950.06;5083072;28;20228;-67
2021/06/09 01:52:44;;;;;;;6.97;6.57;;;;;;;12.51;97.97;95947.53;5077895;28;20214;-66
2021/06/09 01:55:14;;;;;;;7.90;7.20;;;;;;;12.46;98.32;95944.66;5086578;28;20217;-67
2021/06/09 01:57:43;;;;;;;7.33;6.90;;;;;;;12.45;98.82;95935.09;5079400;28;20266;-67
2021/06/09 02:00:15;;;;;;;7.23;6.83;;;;;;;12.44;99.13;95941.38;5073965;28;20281;-66
2021/06/09 02:02:43;;;;;;;6.00;5.67;;;;;;;12.45;99.33;95940.38;5085665;28;20316;-67
2021/06/09 02:05:12;;;;;;;6.97;6.57;;;;;;;12.51;99.87;95945.72;5086723;28;20244;-67
2021/06/09 02:07:45;;;;;;;8.13;7.53;;;;;;;12.52;100.00;95941.25;5077708;28;20806;-67
2021/06/09 02:10:16;;;;;;;8.93;8.33;;;;;;;12.51;100.00;95937.78;5088486;28;20228;-67
2021/06/09 02:12:47;;;;;;;9.03;8.43;;;;;;;12.57;100.00;95932.75;5085989;28;20259;-67
2021/06/09 02:15:17;;;;;;;6.90;6.53;;;;;;;12.57;100.00;95936.22;5092185;28;20221;-67
2021/06/09 02:17:56;;;;;;;9.60;8.93;;;;;;;12.56;100.00;95947.81;5084923;28;20308;-67
2021/06/09 02:20:26;;;;;;;8.07;7.47;;;;;;;12.57;100.00;95946.81;5086553;28;20225;-67
2021/06/09 02:22:55;;;;;;;9.27;8.57;;;;;;;12.60;100.00;95943.75;5084376;28;20221;-67
2021/06/09 02:25:24;;;;;;;10.53;9.73;;;;;;;12.61;100.00;95948.06;5085714;28;20221;-67
2021/06/09 02:27:53;;;;;;;9.83;9.07;;;;;;;12.59;100.00;95943.97;5085189;28;20690;-67
2021/06/09 02:30:21;;;;;;;9.10;8.30;;;;;;;12.55;100.00;95943.53;5085428;27;20300;-67
2021/06/09 02:32:50;;;;;;;10.77;9.80;;;;;;;12.53;100.00;95940.25;5087857;28;20309;-66
2021/06/09 02:35:19;;;;;;;8.37;7.77;;;;;;;12.49;100.00;95949.56;5087027;28;20381;-66
2021/06/09 02:37:51;;;;;;;10.23;9.33;;;;;;;12.47;100.00;95946.28;5083192;28;20329;-67
2021/06/09 02:40:21;;;;;;;7.80;7.27;;;;;;;12.45;100.00;95943.03;5086235;28;20301;-67
2021/06/09 02:42:49;;;;;;;7.90;7.40;;;;;;;12.43;100.00;95945.84;5069974;28;20248;-67
2021/06/09 02:45:20;;;;;;;8.13;7.57;;;;;;;12.41;100.00;95949.69;5089366;28;20229;-67
2021/06/09 02:47:51;;;;;;;7.07;6.53;;;;;;;12.37;100.00;95943.16;5084015;28;20252;-67
2021/06/09 02:50:21;;;;;;;7.13;6.73;;;;;;;12.31;100.00;95946.53;5085225;28;20698;-67
2021/06/09 02:53:02;;;;;;;6.50;5.80;;;;;;;12.16;99.47;95943.91;5082955;28;20224;-67
2021/06/09 02:55:43;;;;;;;5.67;5.37;;;;;;;11.99;99.01;95953.91;5081112;28;20647;-65
2021/06/09 02:58:14;;;;;;;5.50;5.20;;;;;;;11.94;98.65;95951.00;5069702;28;20316;-65
2021/06/09 03:00:56;;;;;;;7.37;6.60;;;;;;;11.77;99.04;95944.22;5101413;28;20222;-65
2021/06/09 03:03:35;;;;;;;6.80;6.40;;;;;;;11.79;98.83;95952.78;5075355;28;20246;-65
2021/06/09 03:06:07;;;;;;;5.90;5.50;;;;;;;11.71;98.69;95950.28;5074545;28;20206;-65
2021/06/09 03:08:40;;;;;;;7.57;7.17;;;;;;;11.61;99.09;95951.38;5074202;28;20623;-65
2021/06/09 03:11:17;;;;;;;5.83;5.53;;;;;;;11.59;98.92;95953.34;5085143;28;20225;-65
2021/06/09 03:13:57;;;;;;;7.07;6.57;;;;;;;11.54;99.25;95950.47;5082427;28;20249;-65
2021/06/09 03:16:30;;;;;;;7.00;6.60;;;;;;;11.53;99.34;95948.81;5078930;28;20221;-65
2021/06/09 03:19:05;;;;;;;7.03;6.63;;;;;;;11.55;99.52;95946.00;5080608;27;20279;-65
2021/06/09 03:21:45;;;;;;;7.40;6.90;;;;;;;11.47;99.37;95946.91;5082785;28;20553;-66
2021/06/09 03:24:21;;;;;;;5.67;5.27;;;;;;;11.44;99.29;95943.81;5080455;28;20221;-66
2021/06/09 03:26:53;;;;;;;5.50;5.20;;;;;;;11.40;99.10;95943.34;5075578;28;20678;-64
2021/06/09 03:29:29;;;;;;;7.23;6.73;;;;;;;11.40;99.50;95949.44;5085296;28;20245;-64
2021/06/09 03:32:02;;;;;;;5.47;5.17;;;;;;;11.43;99.55;95947.44;5075656;28;20220;-64
2021/06/09 03:34:37;;;;;;;7.50;7.03;;;;;;;11.47;100.00;95948.72;5080506;28;20362;-65
2021/06/09 03:37:09;;;;;;;7.10;6.70;;;;;;;11.50;100.00;95938.59;5078726;28;20229;-65
2021/06/09 03:39:40;;;;;;;6.87;6.47;;;;;;;11.54;100.00;95942.53;5067786;28;20768;-65
2021/06/09 03:42:10;;;;;;;6.93;6.53;;;;;;;11.58;100.00;95946.44;5081685;28;20641;-65
2021/06/09 03:44:44;;;;;;;6.70;6.30;;;;;;;11.58;100.00;95940.31;5083941;28;20279;-65
2021/06/09 03:47:16;;;;;;;6.47;6.00;;;;;;;11.58;100.00;95946.44;5071822;28;20221;-65
2021/06/09 03:49:44;;;;;;;5.63;5.33;;;;;;;11.63;100.00;95953.84;5067271;28;20283;-65
2021/06/09 03:52:13;;;;;;;6.03;5.63;;;;;;;11.71;99.67;95942.34;5082730;28;20643;-65
2021/06/09 03:54:44;;;;;;;7.07;6.47;;;;;;;11.66;99.30;95943.69;5083229;28;20830;-65
2021/06/09 03:57:12;;;;;;;8.77;8.17;;;;;;;11.52;99.43;95947.19;5071381;28;20221;-65
2021/06/09 03:59:41;;;;;;;7.47;6.87;;;;;;;11.51;99.60;95945.53;5082801;28;20249;-65
2021/06/09 04:02:09;;;;;;;7.20;6.50;;;;;;;11.54;99.93;95942.53;5062658;28;20226;-65
2021/06/09 04:04:39;;;;;;;7.47;7.07;;;;;;;11.54;99.65;95939.88;5064596;28;20312;-65
2021/06/09 04:07:08;;;;;;;9.87;9.27;;;;;;;11.49;99.63;95944.88;5072371;28;20229;-65
2021/06/09 04:09:38;;;;;;;7.90;7.40;;;;;;;11.48;100.00;95943.25;5082087;28;20259;-64
2021/06/09 04:12:09;;;;;;;9.57;8.77;;;;;;;11.38;100.00;95950.63;5081282;28;20283;-65
2021/06/09 04:14:41;;;;;;;8.03;7.40;;;;;;;11.33;100.00;95955.63;5077400;28;20298;-65
2021/06/09 04:17:10;;;;;;;8.60;8.00;;;;;;;11.42;100.00;95962.47;5073931;28;20745;-64
2021/06/09 04:19:42;;;;;;;8.73;8.20;;;;;;;11.53;100.00;95964.69;5071692;28;20221;-65
2021/06/09 04:22:10;;;;;;;6.63;6.27;;;;;;;11.58;100.00;95962.28;5065847;28;20227;-65
2021/06/09 04:24:39;;;;;;;6.77;6.37;;;;;;;11.63;100.00;95967.88;5065972;28;20238;-65
2021/06/09 04:27:10;;;;;;;7.60;7.03;;;;;;;11.71;100.00;95971.44;5064330;28;20491;-65
2021/06/09 04:29:38;;;;;;;9.57;8.97;;;;;;;11.80;100.00;95965.06;5080480;28;20249;-65
2021/06/09 04:32:06;;;;;;;10.30;9.50;;;;;;;11.90;100.00;95977.00;5078377;28;20722;-65
2021/06/09 04:34:49;;;;;;;7.57;6.97;;;;;;;12.04;100.00;95971.88;5080377;28;20240;-65
2021/06/09 04:37:19;;;;;;;8.83;8.23;;;;;;;12.16;100.00;95968.56;5075846;28;20726;-64
2021/06/09 04:39:48;;;;;;;9.50;8.90;;;;;;;12.29;100.00;95967.06;5070827;28;20249;-65
2021/06/09 04:42:16;;;;;;;11.90;11.10;;;;;;;12.42;100.00;95965.38;5068050;28;20322;-66
2021/06/09 04:44:44;;;;;;;12.00;11.10;;;;;;;12.61;100.00;95958.63;5067198;28;20258;-65
2021/06/09 04:47:13;;;;;;;11.43;10.63;;;;;;;12.75;100.00;95955.13;5075031;28;20642;-65
2021/06/09 04:49:42;;;;;;;10.27;9.53;;;;;;;12.91;100.00;95958.53;5085651;28;20304;-65
2021/06/09 04:52:13;;;;;;;11.83;11.03;;;;;;;13.04;100.00;95958.63;5081828;28;20244;-64
2021/06/09 04:54:41;;;;;;;9.43;8.80;;;;;;;13.19;100.00;95951.44;5085475;28;20317;-64
2021/06/09 04:57:08;;;;;;;10.83;9.93;;;;;;;13.29;100.00;95951.91;5076688;28;20218;-65
2021/06/09 04:59:36;;;;;;;14.17;12.73;;;;;;;13.35;100.00;95945.84;5083531;28;20224;-65
2021/06/09 05:02:04;;;;;;;13.07;12.13;;;;;;;13.49;100.00;95943.28;5079725;28;20227;-64
2021/06/09 05:04:32;;;;;;;11.67;10.87;;;;;;;13.61;100.00;95949.66;5080131;28;20308;-64
2021/06/09 05:07:00;;;;;;;13.27;12.37;;;;;;;13.69;100.00;95946.84;5063584;28;20221;-65
2021/06/09 05:09:29;;;;;;;14.83;13.37;;;;;;;13.79;100.00;95952.63;5068012;28;20301;-65
2021/06/09 05:12:02;;;;;;;12.80;11.90;;;;;;;13.93;100.00;95942.91;5077010;28;20671;-65
2021/06/09 05:14:35;;;;;;;11.53;10.63;;;;;;;14.09;100.00;95947.06;5069046;28;20313;-65
2021/06/09 05:17:05;;;;;;;12.37;11.47;;;;;;;14.22;99.74;95944.44;5075001;28;20266;-65
2021/06/09 05:19:35;;;;;;;12.33;11.27;;;;;;;14.34;99.25;95948.13;5085748;28;20279;-64
2021/06/09 05:22:06;;;;;;;13.63;12.57;;;;;;;14.41;99.22;95951.63;5081511;28;20218;-66
2021/06/09 05:24:36;;;;;;;13.33;12.33;;;;;;;14.51;98.57;95954.75;5084908;28;20706;-66
2021/06/09 05:27:05;;;;;;;12.70;11.70;;;;;;;14.62;98.08;95944.56;5078594;28;20260;-65
2021/06/09 05:29:35;;;;;;;11.50;10.60;;;;;;;14.75;97.78;95949.91;5091831;28;20304;-66
2021/06/09 05:32:04;;;;;;;12.60;11.33;;;;;;;14.81;97.53;95941.09;5090865;28;20220;-65
2021/06/09 05:34:34;;;;;;;10.83;9.93;;;;;;;14.95;97.56;95942.75;5086805;28;20308;-66
2021/06/09 05:37:03;;;;;;;12.47;11.47;;;;;;;15.01;97.13;95947.25;5079757;28;20229;-65
2021/06/09 05:39:31;;;;;;;11.93;11.10;;;;;;;15.07;96.53;95950.94;5068923;28;20245;-66
2021/06/09 05:42:00;;;;;;;11.53;10.73;;;;;;;15.10;96.05;95949.72;5078776;27;20221;-65
2021/06/09 05:44:29;;;;;;;11.00;10.23;;;;;;;15.24;96.08;95940.69;5085389;28;20231;-64
2021/06/09 05:46:59;;;;;;;11.43;10.67;;;;;;;15.44;95.36;95946.00;5080461;28;20220;-64
2021/06/09 05:49:26;;;;;;;10.33;9.73;;;;;;;15.59;94.70;95949.25;5071938;27;20568;-65
2021/06/09 05:51:55;;;;;;;11.40;10.70;;;;;;;15.72;94.37;95948.41;5075443;28;20225;-66
2021/06/09 05:54:23;;;;;;;8.93;8.43;;;;;;;15.79;93.75;95943.91;5070015;28;20253;-66
2021/06/09 05:56:51;;;;;;;9.97;9.13;;;;;;;15.97;93.63;95946.72;5086241;27;20209;-66
2021/06/09 05:59:20;;;;;;;8.47;7.90;;;;;;;16.14;92.41;95953.19;5082667;28;20245;-66
2021/06/09 06:01:47;;;;;;;9.57;8.77;;;;;;;16.31;91.68;95952.72;5086557;28;20313;-66
2021/06/09 06:04:15;;;;;;;8.40;7.83;;;;;;;16.39;90.57;95950.63;5081778;28;20294;-66
2021/06/09 06:06:47;;;;;;;8.37;7.87;;;;;;;16.47;89.21;95952.25;5076261;28;20756;-66
2021/06/09 06:09:14;;;;;;;8.43;7.73;;;;;;;16.59;89.16;95957.69;5083911;28;20260;-65
2021/06/09 06:11:43;;;;;;;8.00;7.57;;;;;;;16.69;89.07;95955.41;5086624;28;20254;-65
2021/06/09 06:14:12;;;;;;;8.67;8.07;;;;;;;16.83;88.87;95956.97;5086614;28;20221;-65
2021/06/09 06:16:50;;;;;;;8.03;7.63;;;;;;;16.95;88.48;95954.44;5082859;28;20300;-65
2021/06/09 06:19:18;;;;;;;8.10;7.63;;;;;;;17.11;88.37;95953.91;5084656;28;20236;-65
2021/06/09 06:21:47;;;;;;;8.03;7.33;;;;;;;17.27;87.86;95949.84;5076643;28;20224;-65
2021/06/09 06:24:16;;;;;;;7.13;6.73;;;;;;;17.34;86.40;95945.28;5075896;28;20260;-65
2021/06/09 06:26:46;;;;;;;7.80;7.40;;;;;;;17.49;85.72;95955.63;5077613;28;20699;-65
2021/06/09 06:29:13;;;;;;;8.30;7.80;;;;;;;17.59;85.08;95955.94;5096000;28;20257;-66
2021/06/09 06:31:43;;;;;;;9.93;9.13;;;;;;;17.65;83.80;95949.72;5078548;28;20209;-65
2021/06/09 06:34:15;;;;;;;6.87;6.47;;;;;;;17.79;84.32;95951.22;5083705;28;20234;-65
2021/06/09 06:36:44;;;;;;;7.20;6.70;;;;;;;17.99;84.80;95950.19;5079079;28;20240;-65
2021/06/09 06:39:11;;;;;;;8.27;7.57;;;;;;;18.14;83.89;95953.31;5077389;28;20240;-64
2021/06/09 06:41:39;;;;;;;9.13;8.53;;;;;;;18.19;81.89;95950.78;5079809;28;20687;-65
2021/06/09 06:44:07;;;;;;;7.13;6.70;;;;;;;18.28;81.86;95946.75;5086570;28;20313;-66
2021/06/09 06:46:34;;;;;;;7.73;7.30;;;;;;;18.38;81.06;95944.38;5079926;28;20248;-65
2021/06/09 06:49:04;;;;;;;7.23;6.83;;;;;;;18.50;82.05;95948.97;5071949;28;20632;-65
2021/06/09 06:51:32;;;;;;;8.27;7.77;;;;;;;18.62;80.21;95949.81;5086776;28;20224;-64
2021/06/09 06:54:00;;;;;;;6.70;6.20;;;;;;;18.74;79.99;95945.34;5077853;28;20288;-65
2021/06/09 06:56:29;;;;;;;7.83;7.27;;;;;;;18.93;79.92;95949.59;5077025;27;20682;-66
2021/06/09 06:58:56;;;;;;;8.63;8.13;;;;;;;19.09;78.21;95949.97;5085228;28;20848;-66
2021/06/09 07:01:30;;;;;;;7.13;6.73;;;;;;;19.21;77.06;95954.31;5091483;28;20646;-65
2021/06/09 07:03:58;;;;;;;7.43;7.03;;;;;;;19.34;77.09;95947.91;5081624;28;20240;-65
2021/06/09 07:06:28;;;;;;;6.50;6.10;;;;;;;19.51;78.12;95946.19;5079993;28;20308;-66
2021/06/09 07:09:10;;;;;;;9.43;8.63;;;;;;;19.78;76.46;95949.22;5080925;28;20248;-66
2021/06/09 07:11:41;;;;;;;8.07;7.57;;;;;;;19.91;75.93;95950.84;5069636;28;20721;-66
2021/06/09 07:14:10;;;;;;;8.37;7.83;;;;;;;19.90;75.87;95951.88;5081555;28;20226;-64
2021/06/09 07:16:40;;;;;;;7.43;6.93;;;;;;;19.98;75.21;95958.75;5082008;28;20518;-64
2021/06/09 07:19:08;;;;;;;8.40;7.90;;;;;;;20.00;75.12;95962.00;5061032;28;20626;-65
2021/06/09 07:21:38;;;;;;;6.53;6.10;;;;;;;19.94;74.71;95963.78;5074836;28;20245;-66
2021/06/09 07:24:07;;;;;;;7.03;6.63;;;;;;;19.87;74.61;95965.75;5081869;28;20299;-66
2021/06/09 07:26:39;;;;;;;7.73;7.23;;;;;;;19.85;75.90;95962.50;5077387;28;20313;-66
2021/06/09 07:29:08;;;;;;;5.90;5.57;;;;;;;20.02;76.11;95976.78;5084048;28;20248;-66
2021/06/09 07:31:38;;;;;;;9.57;8.97;;;;;;;19.93;76.20;95972.84;5084126;28;20378;-65
2021/06/09 07:34:07;;;;;;;7.20;6.80;;;;;;;20.10;76.50;95964.91;5077035;28;20475;-66
2021/06/09 07:36:41;;;;;;;7.00;6.60;;;;;;;20.44;77.07;95968.56;5072371;28;20309;-66
2021/06/09 07:39:11;;;;;;;8.03;7.53;;;;;;;20.67;75.12;95968.50;5055446;28;20292;-66
2021/06/09 07:41:41;;;;;;;7.17;6.73;;;;;;;20.83;74.22;95966.91;5074614;28;20237;-66
2021/06/09 07:44:11;;;;;;;6.47;6.10;;;;;;;20.98;73.61;95969.06;5084511;28;20226;-66
2021/06/09 07:46:40;;;;;;;6.60;6.30;;;;;;;20.73;74.62;95977.44;5097114;28;20793;-65
2021/06/09 07:49:09;;;;;;;10.23;9.53;;;;;;;20.94;73.30;95968.72;5077227;28;20225;-65
2021/06/09 07:51:41;;;;;;;6.87;6.47;;;;;;;21.25;72.37;95969.25;5084400;28;20249;-66
2021/06/09 07:54:10;;;;;;;9.50;8.97;;;;;;;21.03;71.46;95974.53;5081594;28;20273;-65
2021/06/09 07:56:39;;;;;;;7.30;6.90;;;;;;;21.17;72.18;95975.81;5089531;28;20298;-65
2021/06/09 07:59:09;;;;;;;7.53;6.77;;;;;;;21.38;72.53;95978.88;5088723;28;20332;-66
2021/06/09 08:01:40;;;;;;;7.17;6.77;;;;;;;21.54;71.32;95978.06;5083939;28;20728;-66
2021/06/09 08:04:09;;;;;;;6.60;6.20;;;;;;;21.70;71.48;95971.06;5070466;28;20230;-66
2021/06/09 08:06:38;;;;;;;7.53;7.03;;;;;;;21.84;70.71;95966.94;5082638;28;20216;-66
2021/06/09 08:09:07;;;;;;;6.97;6.47;;;;;;;22.06;69.99;95970.50;5081750;28;20317;-66
2021/06/09 08:11:37;;;;;;;6.33;6.03;;;;;;;22.48;70.81;95971.84;5082752;28;20750;-67
2021/06/09 08:14:07;;;;;;;6.97;6.57;;;;;;;22.87;69.98;95970.72;5083091;28;20835;-66
2021/06/09 08:16:36;;;;;;;6.27;5.97;;;;;;;23.28;68.39;95976.47;5048189;28;20353;-65
2021/06/09 08:19:04;;;;;;;6.30;6.00;;;;;;;23.69;67.36;95966.06;5072008;28;20291;-66
2021/06/09 08:21:32;;;;;;;5.32;5.13;;;;;;;24.04;65.54;95968.97;5061246;28;20894;-67
2021/06/09 08:24:02;;;;;;;6.88;6.57;;;;;;;24.32;65.13;95975.06;5062030;28;20700;-67
2021/06/09 08:26:29;;;;;;;8.23;7.55;;;;;;;24.40;62.22;95972.69;5048390;28;20310;-67
2021/06/09 08:28:58;;;;;;;8.23;7.82;;;;;;;24.00;63.05;95969.75;5048450;28;20215;-66
2021/06/09 08:31:27;;;;;;;8.35;7.75;;;;;;;24.14;62.78;95968.25;5068557;28;20758;-66
2021/06/09 08:33:57;;;;;;;9.15;8.55;;;;;;;24.43;62.67;95970.56;5072612;28;20305;-66
2021/06/09 08:36:24;;;;;;;6.10;5.82;;;;;;;24.55;63.20;95971.13;5058474;28;20218;-66
2021/06/09 08:38:56;;;;;;;6.75;6.45;;;;;;;24.71;61.29;95972.00;5057792;28;20211;-66
2021/06/09 08:41:28;;;;;;;7.57;7.20;;;;;;;24.70;62.83;95975.78;5067150;28;20306;-66
2021/06/09 08:43:57;;;;;;;7.85;7.35;;;;;;;25.05;62.91;95978.56;5084246;28;20741;-66
2021/06/09 08:46:25;;;;;;;6.78;6.40;;;;;;;25.30;59.85;95974.28;5080587;28;20231;-67
2021/06/09 08:48:56;;;;;;;5.00;4.75;;;;;;;25.57;60.05;95964.03;5084004;28;20779;-66
2021/06/09 08:51:24;;;;;;;5.68;5.40;;;;;;;25.83;58.57;95967.56;5087719;28;20292;-67
2021/06/09 08:53:53;;;;;;;6.50;6.10;;;;;;;26.07;59.07;95973.19;5084486;28;20386;-66
2021/06/09 08:56:23;;;;;;;7.20;6.80;;;;;;;26.25;57.03;95969.91;5093353;27;20225;-67
2021/06/09 08:58:52;;;;;;;6.72;6.43;;;;;;;26.53;55.79;95975.78;5102753;28;20228;-66
2021/06/09 09:01:20;;;;;;;6.10;5.75;;;;;;;26.70;54.98;95970.84;5086091;28;20316;-65
2021/06/09 09:03:50;;;;;;;6.65;6.35;;;;;;;26.76;54.83;95967.00;5086931;28;20217;-67
2021/06/09 09:06:20;;;;;;;6.57;6.28;;;;;;;26.76;56.23;95975.13;5087905;28;20217;-67
2021/06/09 09:08:48;;;;;;;5.80;5.50;;;;;;;26.98;56.30;95976.66;5080767;28;20297;-66
2021/06/09 09:11:15;;;;;;;5.88;5.57;;;;;;;27.08;55.01;95976.63;5084366;28;20759;-67
2021/06/09 09:13:43;;;;;;;5.63;5.32;;;;;;;27.29;55.59;95972.66;5085747;28;20221;-67
2021/06/09 09:16:12;;;;;;;6.82;6.53;;;;;;;27.53;53.09;95966.53;5088036;28;20688;-67
2021/06/09 09:18:41;;;;;;;6.07;5.78;;;;;;;27.42;52.85;95976.63;5087132;28;20222;-67
2021/06/09 09:21:11;;;;;;;7.25;6.85;;;;;;;27.33;54.69;95972.91;5085781;28;20237;-67
2021/06/09 09:23:47;;;;;;;7.57;7.28;;;;;;;27.22;55.53;95974.88;5074394;28;20588;-66
2021/06/09 09:26:24;;;;;;;7.28;6.97;;;;;;;27.15;56.77;95974.38;5067250;28;20217;-67
2021/06/09 09:29:08;;;;;;;7.80;7.38;;;;;;;27.16;55.81;95973.31;5069691;28;20225;-67
2021/06/09 09:31:48;;;;;;;7.53;7.00;;;;;;;27.28;57.35;95970.25;5088674;28;20781;-66
2021/06/09 09:34:31;;;;;;;6.72;6.32;;;;;;;27.49;55.73;95972.50;5079628;28;20615;-67
2021/06/09 09:37:18;;;;;;;7.32;6.95;;;;;;;27.62;55.14;95971.06;5058966;28;20228;-67
2021/06/09 09:39:49;;;;;;;6.93;6.40;;;;;;;27.58;56.33;95974.63;5080137;28;20239;-67
2021/06/09 09:42:26;;;;;;;7.13;6.80;;;;;;;27.87;56.47;95972.75;5086764;28;20229;-67
2021/06/09 09:44:54;;;;;;;5.93;5.63;;;;;;;28.25;54.39;95979.13;5073997;28;20256;-67
2021/06/09 09:47:24;;;;;;;7.43;7.13;;;;;;;28.52;52.07;95973.16;5053710;28;20226;-66
2021/06/09 09:49:52;;;;;;;8.35;7.75;;;;;;;28.58;53.08;95977.44;5061791;28;20757;-67
2021/06/09 09:52:21;;;;;;;9.60;9.00;;;;;;;28.30;52.28;95979.13;5065117;28;20317;-67
2021/06/09 09:55:07;;;;;;;9.57;9.07;;;;;;;27.38;53.57;95970.97;5087074;27;20232;-67
2021/06/09 09:57:36;;;;;;;9.10;7.82;;;;;;;27.10;55.43;95979.84;5086341;28;20654;-66
2021/06/09 10:00:06;;;;;;;9.55;8.90;;;;;;;27.21;55.35;95970.56;5092077;28;20221;-67
2021/06/09 10:02:35;;;;;;;8.15;7.65;;;;;;;27.56;55.60;95976.81;5078243;28;20233;-67
2021/06/09 10:05:09;;;;;;;10.32;9.70;;;;;;;27.94;55.21;95965.09;5085425;28;20255;-67
2021/06/09 10:07:37;;;;;;;7.30;6.93;;;;;;;28.10;53.92;95970.38;5077458;28;20274;-67
2021/06/09 10:10:06;;;;;;;7.53;7.10;;;;;;;28.48;55.05;95964.00;5071541;28;20248;-67
2021/06/09 10:12:34;;;;;;;7.68;7.28;;;;;;;28.98;54.41;95969.06;5082803;27;20233;-67
2021/06/09 10:15:01;;;;;;;10.90;10.15;;;;;;;29.18;50.10;95964.16;5078066;28;20218;-66
2021/06/09 10:17:30;;;;;;;9.20;8.70;;;;;;;29.21;50.52;95961.97;5086431;28;20245;-67
2021/06/09 10:20:01;;;;;;;8.50;7.88;;;;;;;29.27;50.93;95964.31;5084479;28;20799;-67
2021/06/09 10:22:33;;;;;;;8.93;8.50;;;;;;;29.08;53.33;95960.78;5065347;28;20222;-67
2021/06/09 10:25:02;;;;;;;8.82;8.23;;;;;;;29.46;50.56;95953.41;5067359;28;20254;-67
2021/06/09 10:27:35;;;;;;;9.40;8.77;;;;;;;29.57;50.79;95949.44;5087065;28;20253;-67
2021/06/09 10:30:04;;;;;;;9.38;8.90;;;;;;;29.50;49.30;95957.16;5084780;28;20792;-67
2021/06/09 10:32:32;;;;;;;8.52;7.85;;;;;;;29.59;51.63;95949.94;5086819;28;20224;-67
2021/06/09 10:35:02;;;;;;;9.05;8.60;;;;;;;29.82;49.43;95933.81;5076644;28;20245;-67
2021/06/09 10:37:29;;;;;;;7.68;6.80;;;;;;;30.00;49.87;95935.66;5072199;28;20825;-68
2021/06/09 10:39:57;;;;;;;9.00;8.15;;;;;;;29.87;46.93;95930.97;5079137;28;20241;-66
2021/06/09 10:42:24;;;;;;;8.40;7.85;;;;;;;29.89;49.25;95926.03;5085645;28;20220;-67
2021/06/09 10:44:52;;;;;;;8.43;7.80;;;;;;;30.07;48.49;95924.34;5083264;28;20236;-68
2021/06/09 10:47:26;;;;;;;6.25;6.00;;;;;;;30.15;47.81;95927.19;5067590;28;20502;-67
2021/06/09 10:49:54;;;;;;;8.77;8.27;;;;;;;30.19;47.67;95928.22;5082701;28;20339;-67
2021/06/09 10:52:24;;;;;;;7.05;6.40;;;;;;;30.08;47.71;95925.97;5104805;28;20303;-67
2021/06/09 10:54:52;;;;;;;8.73;8.18;;;;;;;29.71;46.80;95922.28;5078734;28;20318;-66
2021/06/09 10:57:22;;;;;;;6.35;6.15;;;;;;;28.97;50.42;95927.50;5085607;28;20213;-66
2021/06/09 10:59:50;;;;;;;7.85;7.00;;;;;;;28.51;50.91;95925.38;5071454;28;20727;-68
2021/06/09 11:02:20;;;;;;;6.97;6.68;;;;;;;27.95;51.74;95923.31;5077839;28;20298;-67
2021/06/09 11:04:49;;;;;;;6.72;6.43;;;;;;;27.73;53.66;95921.09;5077869;28;20229;-67
2021/06/09 11:07:28;;;;;;;6.40;6.20;;;;;;;27.34;53.71;95917.59;5075886;28;20221;-67
2021/06/09 11:09:57;;;;;;;6.45;6.05;;;;;;;27.12;55.78;95920.78;5072201;28;20279;-66
2021/06/09 11:12:26;;;;;;;7.10;6.63;;;;;;;26.61;53.17;95930.00;5065133;28;20648;-66
2021/06/09 11:14:57;;;;;;;6.20;5.90;;;;;;;25.96;56.02;95922.91;5074613;28;20225;-66
2021/06/09 11:17:40;;;;;;;6.50;6.10;;;;;;;25.33;58.54;95931.38;5083103;28;20666;-67
2021/06/09 11:20:24;;;;;;;6.07;5.72;;;;;;;25.04;60.60;95928.34;5079592;28;20245;-65
2021/06/09 11:23:04;;;;;;;6.50;6.10;;;;;;;24.31;62.54;95932.97;5071242;28;20214;-66
2021/06/09 11:25:35;;;;;;;7.03;6.72;;;;;;;23.90;64.46;95935.47;5067933;28;20222;-66
2021/06/09 11:28:05;;;;;;;7.07;6.57;;;;;;;23.60;66.18;95935.28;5068058;28;20233;-66
2021/06/09 11:30:44;;;;;;;9.98;9.30;;;;;;;23.21;67.78;95922.03;5078850;28;20245;-66
2021/06/09 11:33:33;;;;;;;8.73;7.60;;;;;;;23.06;67.77;95920.03;5075592;28;20300;-66
2021/06/09 11:36:03;;;;;;;7.78;7.25;;;;;;;23.06;68.50;95919.22;5077699;28;20543;-66
2021/06/09 11:38:37;;;;;;;9.48;8.75;;;;;;;22.96;70.03;95928.81;5073065;28;20293;-65
2021/06/09 11:41:07;;;;;;;9.07;8.38;;;;;;;22.74;70.43;95922.66;5064426;28;20316;-66
2021/06/09 11:43:41;;;;;;;11.57;7.70;;;;;;;22.57;69.44;95928.13;5064119;28;20222;-66
2021/06/09 11:46:11;;;;;;;7.50;6.75;;;;;;;22.32;69.84;95933.22;5081970;28;20224;-66